Time;durP1;ratioP1;P1;durP2;ratioP2;P2;SDS_P1;SDS_P2;PMS_P1;PMS_P2;Temp;Humidity;BMP_temperature;BMP_pressure;BME280_temperature;BME280_humidity;BME280_pressure;Samples;Min_cycle;Max_cycle;Signal;HPM_P1;HPM_P2
2021/10/10 00:02:22;;;;;;;49.63;22.95;;;;;;;18.92;67.88;100574.53;5053558;28;20456;-58
2021/10/10 00:04:49;;;;;;;52.63;24.05;;;;;;;18.86;67.83;100570.19;5044881;28;20136;-59
2021/10/10 00:07:16;;;;;;;52.75;23.27;;;;;;;18.80;67.91;100572.38;5053415;28;20118;-59
2021/10/10 00:09:42;;;;;;;49.70;22.52;;;;;;;18.77;68.37;100563.72;5052960;28;20127;-58
2021/10/10 00:12:09;;;;;;;48.38;25.58;;;;;;;18.79;68.23;100572.72;5049298;28;20124;-58
2021/10/10 00:14:36;;;;;;;52.58;26.52;;;;;;;18.86;67.87;100564.53;5050654;28;20168;-59
2021/10/10 00:17:03;;;;;;;55.42;24.55;;;;;;;18.90;67.95;100565.53;5050433;28;20527;-63
2021/10/10 00:19:30;;;;;;;54.33;25.17;;;;;;;18.94;67.26;100570.19;5054404;28;20116;-64
2021/10/10 00:21:56;;;;;;;58.13;24.90;;;;;;;18.90;66.85;100565.53;5053604;28;20128;-62
2021/10/10 00:24:23;;;;;;;54.65;24.08;;;;;;;18.89;66.73;100575.19;5047695;28;20522;-63
2021/10/10 00:26:50;;;;;;;51.50;22.63;;;;;;;18.67;66.56;100545.91;5045781;28;21087;-66
2021/10/10 00:29:18;;;;;;;47.88;23.98;;;;;;;18.62;66.38;100554.56;5045922;28;20140;-71
2021/10/10 00:31:45;;;;;;;63.47;26.58;;;;;;;18.65;66.61;100568.03;5034829;28;20077;-63
2021/10/10 00:34:12;;;;;;;60.38;27.60;;;;;;;18.61;66.20;100564.22;5050868;28;20053;-61
2021/10/10 00:36:38;;;;;;;51.40;24.02;;;;;;;18.51;66.70;100555.25;5048015;28;20080;-64
2021/10/10 00:39:05;;;;;;;62.70;27.73;;;;;;;18.42;66.67;100543.94;5054265;28;20053;-62
2021/10/10 00:41:32;;;;;;;51.65;26.77;;;;;;;18.52;67.45;100557.75;5054240;28;20457;-62
2021/10/10 00:44:07;;;;;;;51.75;25.10;;;;;;;18.28;67.91;100523.50;5049019;28;20547;-64
2021/10/10 00:46:33;;;;;;;43.13;22.05;;;;;;;18.43;68.82;100559.75;5040947;28;20057;-65
2021/10/10 00:49:00;;;;;;;50.03;20.98;;;;;;;18.32;68.93;100547.94;5048488;28;20128;-70
2021/10/10 00:51:35;;;;;;;46.97;21.17;;;;;;;18.31;69.72;100553.94;5038540;28;20072;-68
2021/10/10 00:54:06;;;;;;;51.72;23.40;;;;;;;18.19;70.48;100544.13;5057664;28;20053;-68
2021/10/10 00:56:36;;;;;;;47.95;23.23;;;;;;;18.25;70.62;100558.91;5054966;28;20128;-67
2021/10/10 00:59:04;;;;;;;52.22;25.80;;;;;;;18.22;70.85;100546.28;5051139;28;20080;-69
2021/10/10 01:01:31;;;;;;;46.05;24.35;;;;;;;18.32;70.60;100558.41;5040537;28;20132;-65
2021/10/10 01:03:58;;;;;;;50.30;24.40;;;;;;;18.39;69.83;100553.09;5040961;28;20049;-63
2021/10/10 01:06:25;;;;;;;53.35;25.77;;;;;;;18.55;69.79;100556.25;5047402;28;20048;-64
2021/10/10 01:08:52;;;;;;;45.50;22.38;;;;;;;18.47;69.54;100535.31;5039381;28;20072;-64
2021/10/10 01:11:19;;;;;;;46.72;21.80;;;;;;;18.55;69.70;100536.44;5048392;28;20456;-67
2021/10/10 01:13:46;;;;;;;47.10;23.42;;;;;;;18.60;69.91;100554.09;5044311;28;20135;-68
2021/10/10 01:16:15;;;;;;;46.22;23.95;;;;;;;18.66;70.32;100557.56;5044510;28;20437;-61
2021/10/10 01:18:41;;;;;;;47.35;22.92;;;;;;;18.59;70.04;100546.75;5044653;28;20110;-61
2021/10/10 01:21:08;;;;;;;42.45;21.45;;;;;;;18.76;69.79;100562.06;5034176;28;20151;-64
2021/10/10 01:23:35;;;;;;;35.90;19.40;;;;;;;18.71;70.43;100554.56;5045565;28;20136;-68
2021/10/10 01:26:02;;;;;;;45.35;18.92;;;;;;;18.78;70.03;100557.75;5039322;28;20247;-62
2021/10/10 01:28:29;;;;;;;32.15;17.63;;;;;;;18.74;69.58;100542.63;5027357;28;20239;-62
2021/10/10 01:30:56;;;;;;;42.85;19.92;;;;;;;18.92;69.16;100555.53;5044436;28;20520;-63
2021/10/10 01:33:22;;;;;;;25.95;15.20;;;;;;;19.00;68.42;100553.03;5042407;28;20041;-61
2021/10/10 01:35:49;;;;;;;26.50;14.23;;;;;;;19.17;68.02;100555.78;5045688;28;20131;-62
2021/10/10 01:38:18;;;;;;;25.52;13.85;;;;;;;19.18;67.55;100532.81;5045813;28;20148;-63
2021/10/10 01:40:46;;;;;;;22.98;10.88;;;;;;;19.32;66.56;100540.25;5042977;28;20049;-61
2021/10/10 01:43:14;;;;;;;19.30;10.45;;;;;;;19.48;65.84;100549.81;5044753;28;20073;-62
2021/10/10 01:45:41;;;;;;;20.25;10.90;;;;;;;19.59;64.73;100544.63;5038292;28;20076;-62
2021/10/10 01:48:08;;;;;;;18.52;10.02;;;;;;;19.60;63.53;100530.13;5046337;28;20056;-62
2021/10/10 01:50:36;;;;;;;16.35;7.35;;;;;;;19.82;62.73;100542.34;5042730;28;20124;-62
2021/10/10 01:53:03;;;;;;;17.98;8.55;;;;;;;19.92;61.60;100541.13;5042047;28;20083;-61
2021/10/10 01:55:30;;;;;;;17.42;7.32;;;;;;;19.80;61.23;100503.03;5050258;28;20094;-61
2021/10/10 01:57:57;;;;;;;11.77;6.75;;;;;;;20.09;60.06;100541.81;5046576;28;20497;-65
2021/10/10 02:00:24;;;;;;;14.65;6.32;;;;;;;20.20;59.71;100530.06;5043724;28;20132;-64
2021/10/10 02:02:51;;;;;;;12.27;6.28;;;;;;;20.28;59.50;100532.00;5047481;28;20049;-63
2021/10/10 02:05:18;;;;;;;13.32;6.25;;;;;;;20.27;58.87;100519.84;5043351;28;20059;-63
2021/10/10 02:07:45;;;;;;;13.75;6.88;;;;;;;20.41;58.88;100539.41;5046494;28;20496;-63
2021/10/10 02:10:12;;;;;;;13.63;7.93;;;;;;;20.31;58.76;100531.31;5036419;28;20124;-63
2021/10/10 02:12:39;;;;;;;17.05;8.65;;;;;;;20.29;59.21;100539.31;5044392;28;20503;-63
2021/10/10 02:15:07;;;;;;;15.02;8.95;;;;;;;20.26;59.29;100528.69;5040944;28;20140;-63
2021/10/10 02:17:34;;;;;;;15.55;7.97;;;;;;;20.20;59.21;100524.38;5042521;28;20077;-63
2021/10/10 02:20:02;;;;;;;13.70;8.65;;;;;;;20.03;58.91;100509.19;5045573;28;20092;-76
2021/10/10 02:22:29;;;;;;;12.85;7.03;;;;;;;20.10;58.64;100529.31;5048775;28;20985;-73
2021/10/10 02:24:56;;;;;;;10.05;5.68;;;;;;;20.05;57.73;100525.84;5039047;28;20088;-66
2021/10/10 02:27:23;;;;;;;8.15;4.00;;;;;;;20.06;56.92;100516.16;5047541;28;20207;-66
2021/10/10 02:29:50;;;;;;;9.10;3.47;;;;;;;20.20;56.26;100527.22;5041137;28;20072;-65
2021/10/10 02:32:17;;;;;;;13.15;3.95;;;;;;;20.16;54.95;100512.09;5045655;28;20124;-64
2021/10/10 02:34:44;;;;;;;7.00;3.47;;;;;;;20.14;53.64;100472.75;5039547;28;20129;-66
2021/10/10 02:37:11;;;;;;;4.13;2.67;;;;;;;20.35;52.12;100510.41;5043137;28;20156;-66
2021/10/10 02:39:38;;;;;;;4.55;3.35;;;;;;;20.39;50.96;100504.88;5048637;28;20087;-63
2021/10/10 02:42:05;;;;;;;8.07;3.80;;;;;;;20.70;50.78;100526.28;5043966;28;20256;-65
2021/10/10 02:44:32;;;;;;;8.75;4.47;;;;;;;20.59;51.76;100526.72;5042419;28;20488;-63
2021/10/10 02:47:00;;;;;;;12.30;5.15;;;;;;;20.43;51.41;100511.50;5019281;28;20533;-62
2021/10/10 02:49:27;;;;;;;7.60;4.18;;;;;;;20.52;51.69;100515.13;5044192;28;20076;-63
2021/10/10 02:51:54;;;;;;;5.93;3.83;;;;;;;20.38;52.02;100520.25;5043585;28;20053;-62
2021/10/10 02:54:21;;;;;;;6.53;3.90;;;;;;;20.32;52.01;100515.94;5044029;28;20476;-62
2021/10/10 02:56:48;;;;;;;9.82;4.97;;;;;;;20.25;52.01;100510.84;5042979;28;20128;-62
2021/10/10 02:59:14;;;;;;;11.30;4.22;;;;;;;20.37;51.60;100524.22;5047414;28;20562;-63
2021/10/10 03:01:41;;;;;;;6.00;3.67;;;;;;;20.26;51.35;100506.00;5038934;28;20041;-62
2021/10/10 03:04:11;;;;;;;6.90;3.35;;;;;;;20.29;50.87;100522.31;5047465;28;20057;-62
2021/10/10 03:06:38;;;;;;;6.90;3.53;;;;;;;20.27;49.92;100513.31;5050479;28;20556;-63
2021/10/10 03:09:04;;;;;;;9.25;3.38;;;;;;;20.35;49.49;100524.59;5043618;28;20111;-62
2021/10/10 03:11:31;;;;;;;5.18;3.15;;;;;;;20.32;48.89;100521.63;5045450;28;20131;-63
2021/10/10 03:13:58;;;;;;;7.60;3.50;;;;;;;20.29;48.47;100514.63;5048836;28;20084;-63
2021/10/10 03:16:25;;;;;;;8.95;2.97;;;;;;;20.34;48.08;100525.78;5041734;28;20132;-62
2021/10/10 03:18:52;;;;;;;6.05;3.80;;;;;;;20.33;48.21;100517.59;5039969;28;20408;-62
2021/10/10 03:21:19;;;;;;;9.75;4.35;;;;;;;20.38;48.44;100525.09;5048498;28;20140;-61
2021/10/10 03:23:46;;;;;;;6.65;2.30;;;;;;;20.16;47.94;100517.75;5045875;28;20052;-62
2021/10/10 03:26:13;;;;;;;5.20;2.83;;;;;;;20.23;47.85;100529.38;5045311;28;20080;-62
2021/10/10 03:28:39;;;;;;;4.25;2.58;;;;;;;20.16;47.37;100529.09;5026249;28;20073;-61
2021/10/10 03:31:06;;;;;;;7.53;3.75;;;;;;;20.14;47.66;100529.44;5046648;28;20120;-62
2021/10/10 03:33:33;;;;;;;6.15;2.53;;;;;;;20.13;48.13;100524.94;5040803;28;20060;-62
2021/10/10 03:36:00;;;;;;;7.40;3.05;;;;;;;20.03;48.05;100516.84;5041268;28;20059;-65
2021/10/10 03:38:26;;;;;;;6.07;2.67;;;;;;;20.02;47.97;100524.53;5037096;28;20128;-67
2021/10/10 03:40:53;;;;;;;5.93;3.30;;;;;;;19.76;47.62;100495.53;5041131;28;20528;-66
2021/10/10 03:43:20;;;;;;;7.95;3.22;;;;;;;19.88;47.48;100507.78;5047827;28;20087;-66
2021/10/10 03:45:47;;;;;;;6.22;2.63;;;;;;;19.99;47.25;100521.56;5040740;28;20046;-67
2021/10/10 03:48:14;;;;;;;8.23;3.90;;;;;;;19.97;47.12;100515.41;5037576;28;20098;-66
2021/10/10 03:50:41;;;;;;;11.98;4.15;;;;;;;20.02;47.47;100530.19;5023278;28;20116;-64
2021/10/10 03:53:07;;;;;;;7.63;3.85;;;;;;;19.93;47.48;100509.59;5025695;28;20080;-62
2021/10/10 03:55:37;;;;;;;7.45;4.10;;;;;;;20.05;48.07;100518.16;5045822;28;20053;-63
2021/10/10 03:58:06;;;;;;;10.73;3.95;;;;;;;20.01;48.31;100514.38;5038186;28;20955;-63
2021/10/10 04:00:33;;;;;;;7.45;3.70;;;;;;;19.85;48.44;100508.47;5046985;28;20520;-65
2021/10/10 04:03:04;;;;;;;9.68;4.18;;;;;;;19.91;48.16;100528.94;5043011;28;20554;-64
2021/10/10 04:08:00;;;;;;;9.13;4.07;;;;;;;19.91;47.98;100520.44;5048424;28;20167;-69
2021/10/10 04:10:28;;;;;;;6.25;3.30;;;;;;;19.51;48.11;100478.34;5039589;28;20050;-67
2021/10/10 04:12:55;;;;;;;7.05;3.08;;;;;;;19.74;48.18;100512.06;5045708;28;20116;-68
2021/10/10 04:15:23;;;;;;;7.47;3.83;;;;;;;19.83;48.04;100519.34;5045969;28;20049;-60
2021/10/10 04:17:49;;;;;;;6.07;3.30;;;;;;;19.77;47.71;100522.72;5048717;28;20069;-61
2021/10/10 04:20:18;;;;;;;6.30;4.28;;;;;;;19.76;47.96;100515.38;5033334;28;20072;-64
2021/10/10 04:22:45;;;;;;;6.70;3.33;;;;;;;19.77;48.09;100522.72;5045835;28;20127;-66
2021/10/10 04:25:13;;;;;;;5.85;3.40;;;;;;;19.66;48.04;100502.47;5045053;28;20160;-66
2021/10/10 04:27:40;;;;;;;8.85;4.13;;;;;;;19.73;47.97;100527.41;5041465;28;20095;-67
2021/10/10 04:30:11;;;;;;;7.43;4.00;;;;;;;19.62;47.67;100504.25;5043670;28;20068;-62
2021/10/10 04:32:40;;;;;;;7.82;2.92;;;;;;;19.74;47.54;100507.22;5047656;28;22569;-61
2021/10/10 04:35:08;;;;;;;6.25;3.20;;;;;;;19.73;47.62;100511.25;5044087;28;20131;-61
2021/10/10 04:37:35;;;;;;;7.20;3.22;;;;;;;19.72;47.34;100515.22;5052443;28;20084;-61
2021/10/10 04:40:03;;;;;;;7.30;2.85;;;;;;;19.72;47.11;100515.22;5049832;28;20084;-61
2021/10/10 04:42:33;;;;;;;6.90;2.92;;;;;;;19.48;46.76;100476.19;5047781;28;20081;-62
2021/10/10 04:45:00;;;;;;;4.60;2.50;;;;;;;19.74;47.16;100514.91;5046790;28;20049;-64
2021/10/10 04:47:26;;;;;;;7.18;3.03;;;;;;;19.74;47.21;100506.41;5052438;28;23327;-64
2021/10/10 04:49:53;;;;;;;10.27;4.03;;;;;;;19.74;47.21;100512.06;5044136;28;20072;-63
2021/10/10 04:52:20;;;;;;;4.72;3.35;;;;;;;19.80;47.27;100510.69;5035312;28;20467;-64
2021/10/10 04:54:47;;;;;;;6.38;3.85;;;;;;;19.81;47.38;100518.84;5052199;28;20471;-64
2021/10/10 04:57:14;;;;;;;8.32;3.60;;;;;;;19.73;47.07;100510.41;5051934;28;20492;-64
2021/10/10 04:59:48;;;;;;;8.40;3.78;;;;;;;19.79;47.11;100521.19;5048675;28;20556;-67
2021/10/10 05:02:16;;;;;;;7.50;3.20;;;;;;;19.77;47.00;100523.53;5050782;28;20128;-66
2021/10/10 05:04:43;;;;;;;6.03;3.13;;;;;;;19.70;47.04;100511.94;5052654;28;20065;-66
2021/10/10 05:07:10;;;;;;;4.82;3.00;;;;;;;19.58;46.42;100501.28;5028998;28;20160;-65
2021/10/10 05:09:37;;;;;;;6.88;3.13;;;;;;;19.58;46.35;100518.28;5051675;28;20045;-67
2021/10/10 05:12:04;;;;;;;6.78;2.85;;;;;;;19.41;46.43;100507.88;5031384;28;20037;-67
2021/10/10 05:14:31;;;;;;;4.82;2.50;;;;;;;19.42;46.47;100511.56;5049138;28;20084;-66
2021/10/10 05:16:58;;;;;;;4.40;2.25;;;;;;;19.43;46.15;100513.22;5051998;28;20087;-67
2021/10/10 05:19:25;;;;;;;3.40;2.10;;;;;;;19.37;45.99;100503.25;5049573;28;20049;-62
2021/10/10 05:21:52;;;;;;;6.57;2.58;;;;;;;19.36;45.87;100513.75;5046769;28;20052;-63
2021/10/10 05:24:19;;;;;;;3.55;2.33;;;;;;;19.11;45.60;100477.88;5049602;28;20136;-65
2021/10/10 05:26:46;;;;;;;6.00;2.45;;;;;;;19.32;45.70;100512.78;5041569;28;20116;-65
2021/10/10 05:29:13;;;;;;;3.40;2.10;;;;;;;19.30;45.35;100519.94;5044132;28;20386;-65
2021/10/10 05:31:39;;;;;;;3.92;2.63;;;;;;;19.22;45.30;100512.34;5049017;28;20051;-65
2021/10/10 05:34:06;;;;;;;3.90;2.10;;;;;;;19.24;45.22;100509.97;5049937;28;20120;-64
2021/10/10 05:36:33;;;;;;;3.88;2.25;;;;;;;19.22;45.47;100526.50;5045994;28;20159;-65
2021/10/10 05:39:00;;;;;;;4.20;1.60;;;;;;;19.18;44.81;100524.34;5039713;28;20073;-68
2021/10/10 05:41:27;;;;;;;3.13;1.75;;;;;;;19.20;44.64;100529.63;5050460;28;20565;-65
2021/10/10 05:43:54;;;;;;;4.75;2.00;;;;;;;19.17;44.31;100533.16;5033761;28;20080;-65
2021/10/10 05:46:20;;;;;;;2.80;1.60;;;;;;;19.13;44.52;100521.66;5048298;28;20465;-74
2021/10/10 05:48:47;;;;;;;4.93;2.05;;;;;;;19.18;44.39;100530.00;5050793;28;20519;-71
2021/10/10 05:51:14;;;;;;;4.22;2.08;;;;;;;19.14;44.74;100526.19;5046428;28;20072;-63
2021/10/10 05:53:41;;;;;;;3.42;1.67;;;;;;;19.13;44.87;100535.00;5049861;28;20185;-63
2021/10/10 05:56:08;;;;;;;2.67;1.75;;;;;;;19.06;44.26;100535.53;5039166;28;20073;-62
2021/10/10 05:58:41;;;;;;;3.50;1.70;;;;;;;19.04;44.39;100540.72;5044768;28;20123;-61
2021/10/10 06:01:07;;;;;;;3.08;2.10;;;;;;;19.02;45.12;100542.22;5045446;28;20125;-63
2021/10/10 06:03:36;;;;;;;3.10;1.40;;;;;;;18.67;44.59;100497.84;5046563;28;20060;-63
2021/10/10 06:06:04;;;;;;;4.22;2.13;;;;;;;18.79;44.60;100527.44;5048978;28;20135;-62
2021/10/10 06:08:31;;;;;;;4.20;1.98;;;;;;;18.68;45.27;100539.09;5046112;28;20087;-65
2021/10/10 06:10:58;;;;;;;5.00;2.20;;;;;;;18.50;46.06;100528.97;5038207;28;20079;-66
2021/10/10 06:13:44;;;;;;;4.47;2.05;;;;;;;18.48;45.78;100528.47;5040109;28;20085;-64
2021/10/10 06:16:11;;;;;;;3.70;2.35;;;;;;;18.17;45.42;100498.41;5036129;28;20136;-61
2021/10/10 06:18:38;;;;;;;3.40;2.00;;;;;;;18.38;44.96;100540.13;5046353;28;20045;-61
2021/10/10 06:21:05;;;;;;;4.70;1.92;;;;;;;18.30;45.93;100532.50;5043023;28;20167;-59
2021/10/10 06:23:31;;;;;;;4.50;1.77;;;;;;;18.28;45.98;100540.47;5050513;28;20568;-64
2021/10/10 06:25:58;;;;;;;4.03;1.75;;;;;;;18.19;45.95;100552.59;5045068;28;20131;-62
2021/10/10 06:28:25;;;;;;;3.10;1.88;;;;;;;18.21;45.05;100533.31;5042627;28;20255;-62
2021/10/10 06:30:53;;;;;;;2.75;1.35;;;;;;;18.34;44.76;100550.44;5041973;28;20124;-62
2021/10/10 06:33:20;;;;;;;2.92;1.70;;;;;;;18.49;44.09;100552.75;5041948;28;20127;-62
2021/10/10 06:35:47;;;;;;;2.45;1.60;;;;;;;18.49;43.76;100532.94;5040270;28;20176;-62
2021/10/10 06:38:14;;;;;;;3.00;1.63;;;;;;;18.66;43.48;100561.22;5023432;28;20459;-62
2021/10/10 06:40:41;;;;;;;2.60;1.23;;;;;;;18.70;42.86;100556.56;5049137;28;20075;-63
2021/10/10 06:43:08;;;;;;;3.13;1.70;;;;;;;18.75;42.51;100549.09;5037934;28;20128;-63
2021/10/10 06:45:35;;;;;;;2.83;1.48;;;;;;;18.75;42.87;100538.59;5041179;28;20049;-63
2021/10/10 06:48:01;;;;;;;2.35;1.38;;;;;;;18.90;42.20;100557.88;5041190;28;20048;-63
2021/10/10 06:50:29;;;;;;;2.97;1.48;;;;;;;19.03;42.36;100564.50;5016918;28;20124;-62
2021/10/10 06:52:56;;;;;;;2.17;1.40;;;;;;;19.04;42.18;100562.50;5035730;28;20041;-62
2021/10/10 06:55:23;;;;;;;6.50;1.73;;;;;;;19.10;42.04;100555.50;5039276;28;20053;-62
2021/10/10 06:57:50;;;;;;;2.22;1.40;;;;;;;19.16;41.83;100566.28;5036769;28;20072;-63
2021/10/10 07:00:17;;;;;;;2.10;1.42;;;;;;;19.15;41.51;100561.81;5023256;28;20122;-62
2021/10/10 07:02:43;;;;;;;3.17;2.30;;;;;;;19.37;41.62;100574.03;5043915;28;20132;-63
2021/10/10 07:05:12;;;;;;;1.50;1.10;;;;;;;19.41;41.30;100566.53;5034803;28;20045;-62
2021/10/10 07:07:40;;;;;;;4.63;1.35;;;;;;;19.53;41.44;100563.00;5041054;28;20069;-62
2021/10/10 07:10:09;;;;;;;2.50;1.30;;;;;;;19.71;41.04;100569.41;5042868;28;20052;-62
2021/10/10 07:12:36;;;;;;;1.05;0.82;;;;;;;19.75;41.24;100576.06;5019534;28;20077;-62
2021/10/10 07:15:06;;;;;;;2.45;1.13;;;;;;;19.86;40.99;100566.84;5036771;28;20077;-63
2021/10/10 07:17:34;;;;;;;2.08;1.45;;;;;;;19.97;40.66;100575.75;5035650;28;20041;-63
2021/10/10 07:20:20;;;;;;;1.08;0.90;;;;;;;19.97;41.18;100581.44;5040048;28;20144;-62
2021/10/10 07:22:58;;;;;;;3.92;1.42;;;;;;;19.83;40.81;100524.19;5040455;28;20131;-63
2021/10/10 07:25:25;;;;;;;2.50;1.30;;;;;;;20.24;39.96;100590.56;5039518;28;20083;-63
2021/10/10 07:27:52;;;;;;;1.70;1.15;;;;;;;20.42;40.04;100605.47;5037081;28;20040;-63
2021/10/10 07:30:19;;;;;;;3.00;1.52;;;;;;;20.47;39.79;100583.38;5017400;28;20424;-63
2021/10/10 07:32:46;;;;;;;1.77;1.30;;;;;;;20.72;39.59;100603.41;5040788;28;20302;-63
2021/10/10 07:35:13;;;;;;;2.17;1.40;;;;;;;20.64;39.29;100588.09;5033460;28;20133;-63
2021/10/10 07:37:39;;;;;;;2.70;1.50;;;;;;;21.00;39.60;100593.09;5037477;28;20128;-60
2021/10/10 07:40:07;;;;;;;3.67;1.98;;;;;;;21.15;39.34;100585.09;5036771;28;20129;-60
2021/10/10 07:42:34;;;;;;;2.65;2.00;;;;;;;21.35;40.04;100598.41;5044901;28;20497;-70
2021/10/10 07:45:07;;;;;;;3.35;1.80;;;;;;;21.54;39.50;100600.69;5026654;28;20049;-59
2021/10/10 07:47:47;;;;;;;3.00;1.70;;;;;;;21.61;39.12;100591.59;5043677;28;20081;-59
2021/10/10 07:50:15;;;;;;;2.28;1.30;;;;;;;21.52;38.69;100586.81;5034986;28;20124;-59
2021/10/10 07:52:42;;;;;;;4.45;2.50;;;;;;;21.71;38.47;100589.09;5041433;28;20124;-58
2021/10/10 07:55:10;;;;;;;2.30;1.38;;;;;;;21.94;38.17;100602.81;5040016;28;20048;-62
2021/10/10 07:57:37;;;;;;;3.97;1.48;;;;;;;22.16;37.82;100593.81;5042077;28;20130;-58
2021/10/10 08:00:06;;;;;;;4.32;1.92;;;;;;;22.45;37.42;100601.22;5043344;28;20077;-60
2021/10/10 08:02:33;;;;;;;2.03;1.20;;;;;;;22.59;37.82;100617.88;5039849;28;20124;-60
2021/10/10 08:05:00;;;;;;;2.83;1.40;;;;;;;22.56;37.57;100600.72;5038871;28;20484;-58
2021/10/10 08:07:27;;;;;;;3.92;1.55;;;;;;;22.74;37.04;100604.09;5045481;28;20076;-57
2021/10/10 08:09:53;;;;;;;3.25;1.48;;;;;;;22.84;36.07;100595.88;5051186;28;20118;-58
2021/10/10 08:12:20;;;;;;;3.05;1.58;;;;;;;23.31;36.11;100603.69;5048336;28;20135;-58
2021/10/10 08:14:47;;;;;;;1.83;1.30;;;;;;;23.80;35.88;100620.50;5012318;28;20170;-60
2021/10/10 08:17:14;;;;;;;2.13;1.42;;;;;;;24.04;34.64;100607.22;5015110;28;20128;-63
2021/10/10 08:19:41;;;;;;;4.35;1.40;;;;;;;24.44;34.58;100620.41;5026115;28;20045;-64
2021/10/10 08:22:08;;;;;;;2.60;2.25;;;;;;;24.34;33.74;100619.75;5042257;28;20084;-65
2021/10/10 08:24:35;;;;;;;3.15;1.63;;;;;;;24.71;34.27;100639.34;5039552;28;20068;-65
2021/10/10 08:27:01;;;;;;;2.83;1.50;;;;;;;24.91;33.08;100637.34;5044897;28;20137;-64
2021/10/10 08:29:28;;;;;;;2.50;1.70;;;;;;;25.14;32.75;100637.44;5045158;28;20128;-65
2021/10/10 08:31:55;;;;;;;1.85;1.33;;;;;;;25.28;32.30;100626.28;5045824;28;20401;-65
2021/10/10 08:34:22;;;;;;;2.30;1.77;;;;;;;25.54;32.02;100630.44;5054156;28;20583;-65
2021/10/10 08:36:49;;;;;;;2.60;1.52;;;;;;;25.82;31.67;100632.19;5037823;28;20083;-65
2021/10/10 08:39:22;;;;;;;2.80;2.05;;;;;;;26.21;31.07;100627.91;5041468;28;20140;-64
2021/10/10 08:41:58;;;;;;;3.15;1.65;;;;;;;26.63;31.23;100626.94;5026790;28;20488;-64
2021/10/10 08:44:34;;;;;;;7.22;2.08;;;;;;;26.95;30.33;100637.97;5046950;28;20069;-65
2021/10/10 08:47:04;;;;;;;3.40;1.73;;;;;;;26.74;29.84;100614.78;5044228;28;20148;-63
2021/10/10 08:49:37;;;;;;;4.03;1.73;;;;;;;27.36;29.85;100636.03;5044049;28;20488;-63
2021/10/10 08:52:07;;;;;;;2.67;1.83;;;;;;;27.62;29.57;100652.28;5042311;28;20075;-63
2021/10/10 08:54:48;;;;;;;3.25;2.05;;;;;;;27.77;29.49;100649.56;5040003;28;20115;-64
2021/10/10 08:57:15;;;;;;;4.05;1.85;;;;;;;28.25;29.29;100653.25;5046309;28;20056;-64
2021/10/10 08:59:45;;;;;;;3.42;1.92;;;;;;;27.80;28.29;100666.00;5042099;28;20043;-64
2021/10/10 09:02:19;;;;;;;3.75;2.00;;;;;;;27.54;28.59;100633.34;5043906;28;20128;-68
2021/10/10 09:04:47;;;;;;;2.22;1.58;;;;;;;27.97;28.86;100642.38;5048537;28;20045;-67
2021/10/10 09:07:13;;;;;;;3.15;2.00;;;;;;;28.33;27.73;100657.00;5051133;28;20405;-67
2021/10/10 09:09:41;;;;;;;3.42;1.75;;;;;;;28.35;27.81;100657.41;5048101;28;20137;-66
2021/10/10 09:12:10;;;;;;;2.30;1.85;;;;;;;28.13;28.15;100644.94;5046609;28;20570;-64
2021/10/10 09:14:45;;;;;;;;;;;;;;;27.80;28.50;100660.25;5041021;28;20085;-65
2021/10/10 09:17:16;;;;;;;2.58;1.98;;;;;;;28.24;27.69;100656.50;5048774;28;20360;-64
2021/10/10 09:19:54;;;;;;;5.28;3.65;;;;;;;28.84;27.50;100644.59;5042584;28;20073;-66
2021/10/10 09:22:22;;;;;;;3.90;2.45;;;;;;;29.23;27.63;100621.78;5042405;28;20045;-66
2021/10/10 09:24:51;;;;;;;6.43;1.70;;;;;;;29.78;27.13;100651.47;5030026;28;20076;-66
2021/10/10 09:27:19;;;;;;;3.05;1.73;;;;;;;29.61;26.89;100658.88;5027323;28;20087;-65
2021/10/10 09:29:49;;;;;;;3.17;1.90;;;;;;;29.25;26.44;100655.88;5050608;28;20129;-66
2021/10/10 09:32:19;;;;;;;2.50;1.65;;;;;;;29.21;26.23;100655.88;5044953;28;20045;-65
2021/10/10 09:34:49;;;;;;;3.25;2.30;;;;;;;29.24;26.33;100648.50;5049940;28;20136;-66
2021/10/10 09:37:22;;;;;;;3.60;1.67;;;;;;;29.69;26.34;100660.53;5047979;28;20072;-65
2021/10/10 09:40:07;;;;;;;5.93;3.00;;;;;;;29.48;26.02;100656.34;5043324;28;20132;-65
2021/10/10 09:42:38;;;;;;;4.75;2.20;;;;;;;29.85;26.64;100660.16;5045258;28;20131;-67
2021/10/10 09:45:39;;;;;;;3.08;1.70;;;;;;;29.84;26.80;100639.16;5043272;28;20465;-67
2021/10/10 09:48:06;;;;;;;4.90;2.50;;;;;;;30.05;25.91;100660.53;5039256;28;20046;-68
2021/10/10 09:50:36;;;;;;;5.10;2.10;;;;;;;29.91;26.14;100650.66;5049814;28;20088;-64
2021/10/10 09:53:09;;;;;;;4.03;2.75;;;;;;;29.53;26.16;100629.22;5049634;28;20080;-65
2021/10/10 09:55:38;;;;;;;4.63;2.33;;;;;;;29.61;26.72;100651.06;5043973;28;20523;-64
2021/10/10 09:58:05;;;;;;;3.53;2.00;;;;;;;29.44;26.81;100654.72;5041746;28;20136;-69
2021/10/10 10:00:35;;;;;;;4.53;2.28;;;;;;;28.83;26.26;100654.44;5041130;28;20049;-66
2021/10/10 10:03:09;;;;;;;6.00;2.13;;;;;;;28.40;27.43;100659.94;5037384;28;20440;-67
2021/10/10 10:05:37;;;;;;;4.53;2.65;;;;;;;28.69;27.12;100649.47;5045692;28;20068;-67
2021/10/10 10:08:05;;;;;;;5.50;2.33;;;;;;;29.09;26.98;100610.22;5031556;28;20136;-67
2021/10/10 10:10:33;;;;;;;4.13;2.20;;;;;;;29.64;27.24;100630.13;5047993;28;20446;-67
2021/10/10 10:13:02;;;;;;;2.50;1.95;;;;;;;30.09;27.09;100638.34;5049998;28;20128;-68
2021/10/10 10:15:34;;;;;;;3.05;2.58;;;;;;;30.24;27.01;100654.41;5046295;28;20180;-67
2021/10/10 10:18:02;;;;;;;3.72;2.15;;;;;;;29.98;26.55;100644.94;5046811;28;20045;-65
2021/10/10 10:20:30;;;;;;;7.40;2.67;;;;;;;29.85;26.03;100657.28;5041536;28;20417;-65
2021/10/10 10:22:58;;;;;;;4.15;3.15;;;;;;;29.78;26.63;100646.56;5045643;28;20170;-64
2021/10/10 10:25:26;;;;;;;5.55;2.72;;;;;;;29.75;27.48;100651.09;5050806;28;20049;-67
2021/10/10 10:27:54;;;;;;;2.63;1.73;;;;;;;29.25;27.03;100648.06;5043215;28;20144;-68
2021/10/10 10:30:23;;;;;;;3.08;2.40;;;;;;;29.02;27.00;100651.25;5044262;28;20136;-66
2021/10/10 10:32:53;;;;;;;4.55;2.10;;;;;;;29.05;27.55;100655.38;5048154;28;20389;-66
2021/10/10 10:35:21;;;;;;;2.63;2.05;;;;;;;29.14;28.15;100657.91;5047749;28;20048;-68
2021/10/10 10:37:51;;;;;;;2.78;2.22;;;;;;;29.21;28.17;100646.41;5039638;28;20052;-68
2021/10/10 10:40:27;;;;;;;3.80;2.13;;;;;;;29.42;27.57;100634.97;5043730;28;20055;-65
2021/10/10 10:42:56;;;;;;;4.55;2.08;;;;;;;29.94;26.61;100638.31;5046647;28;20445;-64
2021/10/10 10:45:23;;;;;;;3.33;2.13;;;;;;;30.01;25.46;100653.97;5046399;28;20181;-64
2021/10/10 10:47:53;;;;;;;4.45;2.10;;;;;;;30.11;25.18;100638.75;5048887;28;20556;-64
2021/10/10 10:50:26;;;;;;;3.25;2.22;;;;;;;30.40;25.24;100628.06;5045705;28;20049;-65
2021/10/10 10:53:00;;;;;;;5.72;2.40;;;;;;;31.00;25.78;100635.69;5041673;28;20041;-61
2021/10/10 10:55:35;;;;;;;3.75;2.17;;;;;;;31.31;25.49;100631.00;5044381;28;20132;-67
2021/10/10 10:58:10;;;;;;;8.80;2.38;;;;;;;31.80;25.24;100643.47;5038093;28;20075;-66
2021/10/10 11:00:50;;;;;;;2.58;2.15;;;;;;;32.07;24.92;100632.16;5045103;28;20119;-67
2021/10/10 11:03:27;;;;;;;5.43;2.45;;;;;;;32.80;25.55;100630.97;5043991;28;20056;-67
2021/10/10 11:05:57;;;;;;;4.63;2.22;;;;;;;33.52;24.42;100635.03;5044025;28;20137;-64
2021/10/10 11:08:27;;;;;;;6.68;3.10;;;;;;;33.02;23.06;100636.53;5043704;28;20067;-65
2021/10/10 11:11:00;;;;;;;6.65;2.20;;;;;;;32.38;23.48;100638.03;5040150;28;20052;-64
2021/10/10 11:13:29;;;;;;;5.82;2.70;;;;;;;32.60;23.94;100629.97;5044524;28;20053;-63
2021/10/10 11:15:57;;;;;;;4.18;2.60;;;;;;;33.19;23.04;100646.22;5047796;28;20103;-63
2021/10/10 11:18:27;;;;;;;7.47;1.95;;;;;;;33.17;22.07;100632.19;5040114;28;20047;-62
2021/10/10 11:20:58;;;;;;;6.78;3.88;;;;;;;33.16;23.55;100636.31;5039367;28;20488;-62
2021/10/10 11:23:25;;;;;;;2.90;2.50;;;;;;;32.95;22.47;100636.59;5043758;28;20475;-62
2021/10/10 11:25:54;;;;;;;2.25;2.05;;;;;;;32.59;22.24;100618.88;5047041;28;20091;-62
2021/10/10 11:28:46;;;;;;;6.68;2.53;;;;;;;33.45;23.41;100624.34;5044947;28;20124;-63
2021/10/10 11:31:23;;;;;;;3.90;2.38;;;;;;;34.35;21.85;100629.53;5037709;28;20100;-62